Time;durP1;ratioP1;P1;durP2;ratioP2;P2;SDS_P1;SDS_P2;PMS_P1;PMS_P2;Temp;Humidity;BMP_temperature;BMP_pressure;BME280_temperature;BME280_humidity;BME280_pressure;Samples;Min_cycle;Max_cycle;Signal;HPM_P1;HPM_P2
2021/04/06 00:00:53;;;;;;;3.00;0.68;;;4.80;99.90;;;;;;4946122;29;20024;-84
2021/04/06 00:03:25;;;;;;;1.00;0.75;;;4.60;99.90;;;;;;4944168;29;20030;-84
2021/04/06 00:06:00;;;;;;;2.30;1.00;;;4.30;99.90;;;;;;4950197;29;20024;-84
2021/04/06 00:08:27;;;;;;;2.28;1.80;;;4.00;99.90;;;;;;4953004;29;20129;-85
2021/04/06 00:10:56;;;;;;;2.55;0.77;;;3.70;99.90;;;;;;4954187;29;20038;-84
2021/04/06 00:13:26;;;;;;;0.93;0.68;;;4.20;99.90;;;;;;4951896;29;20027;-84
2021/04/06 00:15:53;;;;;;;0.70;0.30;;;3.30;99.90;;;;;;4947349;29;20039;-84
2021/04/06 00:18:20;;;;;;;0.68;0.60;;;3.70;99.90;;;;;;4945415;29;20059;-84
2021/04/06 00:20:48;;;;;;;3.67;1.90;;;3.70;99.90;;;;;;4944100;29;20027;-84
2021/04/06 00:23:16;;;;;;;1.10;0.45;;;3.20;99.90;;;;;;4944183;29;20118;-84
2021/04/06 00:25:45;;;;;;;1.98;1.55;;;2.90;99.90;;;;;;4947181;29;20027;-83
2021/04/06 00:28:19;;;;;;;1.60;1.17;;;2.90;99.90;;;;;;4947129;29;20031;-84
2021/04/06 00:30:49;;;;;;;0.43;0.30;;;2.80;99.90;;;;;;4945385;29;20058;-84
2021/04/06 00:33:22;;;;;;;0.45;0.35;;;2.80;99.90;;;;;;4945072;29;20031;-84
2021/04/06 00:35:54;;;;;;;0.63;0.50;;;2.80;99.90;;;;;;4946316;29;20043;-84
2021/04/06 00:38:21;;;;;;;0.60;0.40;;;2.80;99.90;;;;;;4952851;29;20027;-85
2021/04/06 00:40:53;;;;;;;1.27;0.10;;;2.80;99.90;;;;;;4954648;29;20035;-84
2021/04/06 00:43:20;;;;;;;0.45;0.20;;;2.70;99.90;;;;;;4957739;29;20032;-84
2021/04/06 00:45:51;;;;;;;0.20;0.10;;;2.80;99.90;;;;;;4958154;29;20003;-85
2021/04/06 00:48:40;;;;;;;1.02;0.20;;;2.70;99.90;;;;;;4962276;28;20039;-84
2021/04/06 00:51:38;;;;;;;0.82;0.30;;;2.60;99.90;;;;;;4945943;29;20058;-84
2021/04/06 00:54:07;;;;;;;0.50;0.20;;;2.60;99.90;;;;;;4948342;29;20031;-85
2021/04/06 00:56:37;;;;;;;0.85;0.25;;;2.60;99.90;;;;;;4950063;29;20042;-85
2021/04/06 00:59:13;;;;;;;0.35;0.10;;;2.60;99.90;;;;;;4953923;29;20023;-85
2021/04/06 01:01:44;;;;;;;0.43;0.22;;;2.70;99.90;;;;;;4947435;29;20027;-85
2021/04/06 01:04:21;;;;;;;0.65;0.40;;;2.70;99.90;;;;;;4944990;28;20112;-84
2021/04/06 01:07:16;;;;;;;0.30;0.10;;;2.70;99.90;;;;;;4945510;28;20031;-85
2021/04/06 01:09:50;;;;;;;0.30;0.10;;;2.80;99.90;;;;;;4944777;29;20023;-85
2021/04/06 01:12:18;;;;;;;0.40;0.10;;;2.80;99.90;;;;;;4945077;29;20487;-84
2021/04/06 01:14:46;;;;;;;0.22;0.10;;;2.70;99.90;;;;;;4944592;29;20031;-84
2021/04/06 01:17:17;;;;;;;0.28;0.10;;;3.00;99.90;;;;;;4943309;29;20075;-85
2021/04/06 01:19:43;;;;;;;1.15;0.15;;;3.00;99.90;;;;;;4943048;29;20024;-84
2021/04/06 01:22:15;;;;;;;0.20;0.00;;;3.20;99.90;;;;;;4944219;29;20066;-84
2021/04/06 01:24:42;;;;;;;0.30;0.15;;;2.80;99.90;;;;;;4944382;29;20050;-85
2021/04/06 01:27:13;;;;;;;0.93;0.45;;;2.90;99.90;;;;;;4943304;29;20030;-85
2021/04/06 01:29:39;;;;;;;0.10;0.00;;;2.90;99.90;;;;;;4942875;29;20074;-85
2021/04/06 01:32:05;;;;;;;1.05;0.10;;;2.80;99.90;;;;;;4942892;29;20419;-85
2021/04/06 01:34:32;;;;;;;0.25;0.00;;;2.90;99.90;;;;;;4942563;29;20035;-85
2021/04/06 01:36:58;;;;;;;0.17;0.00;;;2.80;99.90;;;;;;4942875;29;20035;-85
2021/04/06 01:39:28;;;;;;;0.52;0.10;;;2.90;99.90;;;;;;4942143;29;20054;-85
2021/04/06 01:42:01;;;;;;;0.00;0.00;;;2.90;99.90;;;;;;4943594;29;20031;-85
2021/04/06 01:44:28;;;;;;;0.47;0.10;;;3.10;99.90;;;;;;4944460;29;20027;-84
2021/04/06 01:46:55;;;;;;;0.17;0.00;;;3.00;99.90;;;;;;4945063;29;20069;-84
2021/04/06 01:49:22;;;;;;;0.45;0.00;;;3.10;98.50;;;;;;4931164;29;20031;-84
2021/04/06 01:51:52;;;;;;;2.08;0.15;;;3.40;95.60;;;;;;4945555;29;20035;-85
2021/04/06 01:54:19;;;;;;;0.20;0.00;;;3.20;96.20;;;;;;4946049;29;20061;-84
2021/04/06 01:57:04;;;;;;;0.47;0.10;;;3.20;96.20;;;;;;4932252;29;20045;-85
2021/04/06 01:59:40;;;;;;;0.30;0.10;;;3.60;95.00;;;;;;4949578;29;20059;-85
2021/04/06 02:02:08;;;;;;;;;;;3.30;94.70;;;;;;4951397;29;20095;-85
2021/04/06 02:04:35;;;;;;;0.30;0.08;;;3.40;94.40;;;;;;4955484;29;19914;-85
2021/04/06 02:07:04;;;;;;;0.10;0.00;;;3.40;95.30;;;;;;4957884;29;20071;-85
2021/04/06 02:09:30;;;;;;;0.28;0.03;;;3.30;96.10;;;;;;4940772;29;20031;-85
2021/04/06 02:11:57;;;;;;;0.40;0.10;;;3.30;98.10;;;;;;4956026;29;20443;-85
2021/04/06 02:14:24;;;;;;;0.20;0.00;;;3.70;97.40;;;;;;4957328;29;20100;-86
2021/04/06 02:17:06;;;;;;;1.75;0.10;;;3.40;94.20;;;;;;4941831;29;20035;-85
2021/04/06 02:19:41;;;;;;;1.27;0.17;;;3.40;95.60;;;;;;4974702;29;20033;-85
2021/04/06 02:22:17;;;;;;;0.30;0.10;;;3.70;95.30;;;;;;4958107;29;20039;-86
2021/04/06 02:24:51;;;;;;;0.30;0.10;;;3.50;95.40;;;;;;4941021;29;20031;-86
2021/04/06 02:27:30;;;;;;;3.40;0.10;;;3.40;96.40;;;;;;4956685;29;20023;-85
2021/04/06 02:30:01;;;;;;;0.32;0.10;;;3.40;98.10;;;;;;4939378;29;20054;-85
2021/04/06 02:32:38;;;;;;;1.65;0.20;;;3.80;98.00;;;;;;4955850;29;20026;-85
2021/04/06 02:35:12;;;;;;;0.10;0.00;;;3.60;95.30;;;;;;4941803;29;20483;-84
2021/04/06 02:37:43;;;;;;;0.65;0.10;;;3.40;81.00;;;;;;4937277;29;20036;-85
2021/04/06 02:40:15;;;;;;;0.15;0.00;;;3.50;77.60;;;;;;4952021;29;20110;-85
2021/04/06 02:42:44;;;;;;;0.40;0.10;;;3.50;77.10;;;;;;4947646;29;20479;-85
2021/04/06 02:45:20;;;;;;;1.45;0.10;;;3.70;80.50;;;;;;4949370;29;20031;-84
2021/04/06 02:48:25;;;;;;;0.10;0.00;;;3.40;74.10;;;;;;4973561;29;20028;-84
2021/04/06 02:51:24;;;;;;;1.95;0.10;;;3.30;68.60;;;;;;4982156;28;20011;-84
2021/04/06 02:55:02;;;;;;;0.20;0.08;;;3.20;71.10;;;;;;4913154;28;20056;-84
2021/04/06 02:58:58;;;;;;;0.20;0.10;;;3.10;75.20;;;;;;5018544;23;20022;-84
2021/04/06 03:09:15;;;;;;;0.52;0.10;;;2.70;75.40;;;;;;5182088;23;20045;-85
2021/04/06 03:12:23;;;;;;;0.63;0.30;;;2.60;76.00;;;;;;5015692;28;20022;-84
2021/04/06 03:17:55;;;;;;;0.82;0.32;;;2.30;79.00;;;;;;5085861;23;20046;-84
2021/04/06 03:21:06;;;;;;;1.38;0.30;;;2.30;78.70;;;;;;5022438;23;20081;-84
2021/04/06 03:31:22;;;;;;;0.30;0.10;;;2.20;73.60;;;;;;4983118;23;20041;-82
2021/04/06 03:34:32;;;;;;;0.32;0.20;;;2.50;76.30;;;;;;4960640;29;20031;-85
2021/04/06 03:38:22;;;;;;;1.95;0.10;;;2.10;74.80;;;;;;4974156;23;20069;-84
2021/04/06 03:41:48;;;;;;;2.28;0.20;;;2.10;70.90;;;;;;4942403;29;20079;-84
2021/04/06 03:45:26;;;;;;;0.50;0.10;;;2.20;71.00;;;;;;4904829;29;20042;-84
2021/04/06 03:55:46;;;;;;;0.73;0.13;;;2.20;70.50;;;;;;5003395;28;20091;-84
2021/04/06 04:02:45;;;;;;;0.45;0.20;;;2.30;69.20;;;;;;5020238;28;20115;-85
2021/04/06 04:05:52;;;;;;;4.05;1.70;;;2.20;67.80;;;;;;5002966;23;20033;-86
2021/04/06 04:11:53;;;;;;;1.92;0.70;;;2.00;70.50;;;;;;5148175;23;20041;-85
2021/04/06 04:33:44;;;;;;;1.00;0.22;;;1.80;74.10;;;;;;5049090;23;20044;-85
2021/04/06 04:39:51;;;;;;;0.30;0.15;;;1.80;84.20;;;;;;5058335;23;20093;-84
2021/04/06 04:43:12;;;;;;;0.70;0.20;;;1.90;85.10;;;;;;5046156;23;20052;-84
2021/04/06 04:46:30;;;;;;;1.77;0.30;;;1.80;77.50;;;;;;5018485;28;20098;-85
2021/04/06 04:48:57;;;;;;;0.57;0.15;;;1.90;78.00;;;;;;5138959;23;20049;-85
2021/04/06 04:51:23;;;;;;;2.70;0.93;;;1.90;78.00;;;;;;5024776;28;20028;-86
2021/04/06 04:53:49;;;;;;;6.70;3.03;;;1.90;77.10;;;;;;5021687;28;20026;-84
2021/04/06 04:56:15;;;;;;;5.53;2.88;;;1.90;75.10;;;;;;5028479;28;20024;-84
2021/04/06 04:58:42;;;;;;;3.20;1.48;;;1.90;75.10;;;;;;5027775;28;20026;-85
2021/04/06 05:01:08;;;;;;;2.75;0.60;;;1.90;76.80;;;;;;5029940;28;20466;-85
2021/04/06 05:03:34;;;;;;;1.20;0.50;;;1.90;73.40;;;;;;5025513;28;20053;-85
2021/04/06 05:06:00;;;;;;;1.40;0.93;;;2.00;75.30;;;;;;5030430;28;20026;-84
2021/04/06 05:08:26;;;;;;;2.10;1.00;;;2.00;73.50;;;;;;5024462;28;20112;-84
2021/04/06 05:10:52;;;;;;;3.13;0.43;;;2.00;76.10;;;;;;5012396;28;20053;-84
2021/04/06 05:13:20;;;;;;;2.70;0.68;;;2.00;78.80;;;;;;5024925;28;20033;-84
2021/04/06 05:15:46;;;;;;;3.50;0.57;;;2.00;87.20;;;;;;5033008;28;20033;-84
2021/04/06 05:18:12;;;;;;;3.13;0.70;;;1.70;91.00;;;;;;5030796;28;20044;-84
2021/04/06 05:20:38;;;;;;;0.90;0.57;;;1.60;92.80;;;;;;5034074;28;20045;-84
2021/04/06 05:23:06;;;;;;;1.67;0.73;;;1.60;94.20;;;;;;5031285;28;20029;-84
2021/04/06 05:25:35;;;;;;;1.02;0.40;;;1.50;93.40;;;;;;5014755;28;20034;-84
2021/04/06 05:28:00;;;;;;;1.83;0.75;;;1.60;94.80;;;;;;5010749;28;20033;-84
2021/04/06 05:30:26;;;;;;;1.92;0.80;;;1.50;94.80;;;;;;5023293;28;20376;-85
2021/04/06 05:32:52;;;;;;;1.95;1.00;;;1.50;96.70;;;;;;5021304;28;20064;-85
2021/04/06 05:35:18;;;;;;;3.08;0.60;;;1.60;96.80;;;;;;5020953;28;20033;-85
2021/04/06 05:37:44;;;;;;;2.22;0.75;;;1.50;95.50;;;;;;5025782;28;20060;-84
2021/04/06 05:40:11;;;;;;;3.20;0.60;;;1.50;95.50;;;;;;5013004;28;20033;-84
2021/04/06 05:43:24;;;;;;;1.55;0.70;;;1.50;96.70;;;;;;5033422;28;20048;-84
2021/04/06 05:46:04;;;;;;;1.15;0.50;;;1.50;97.70;;;;;;5030314;28;20002;-85
2021/04/06 05:48:46;;;;;;;2.78;1.10;;;1.40;97.50;;;;;;5049223;23;20053;-84
2021/04/06 05:52:13;;;;;;;1.58;0.60;;;1.50;97.40;;;;;;5153488;23;20049;-83
2021/04/06 05:59:17;;;;;;;1.23;0.52;;;1.70;97.60;;;;;;5075943;23;20075;-85
2021/04/06 06:06:00;;;;;;;4.07;0.40;;;1.70;97.10;;;;;;4981717;28;20299;-85
2021/04/06 06:09:10;;;;;;;1.05;0.47;;;1.70;97.30;;;;;;4942591;28;20039;-85
2021/04/06 06:12:12;;;;;;;2.38;0.55;;;1.70;97.30;;;;;;5042010;28;20040;-84
2021/04/06 06:14:43;;;;;;;4.80;0.70;;;1.80;95.70;;;;;;5338200;23;20046;-83
2021/04/06 06:17:32;;;;;;;0.80;0.32;;;2.30;99.90;;;;;;5006093;28;20068;-84
2021/04/06 06:19:59;;;;;;;1.13;0.50;;;5.40;94.60;;;;;;5022865;28;20041;-82
2021/04/06 06:36:05;;;;;;;6.28;1.20;;;8.00;71.10;;;;;;5107819;22;20045;-85
2021/04/06 06:39:09;;;;;;;3.50;0.60;;;8.50;68.90;;;;;;5058729;28;20100;-85
2021/04/06 06:41:56;;;;;;;2.13;1.27;;;8.30;66.50;;;;;;5051528;28;20130;-86
2021/04/06 06:44:22;;;;;;;3.58;1.30;;;8.40;71.90;;;;;;5029523;28;20059;-83
2021/04/06 06:47:19;;;;;;;5.55;1.17;;;7.90;69.90;;;;;;5024504;28;20085;-85
2021/04/06 06:49:45;;;;;;;2.67;0.77;;;8.10;75.10;;;;;;5026650;28;20021;-85
2021/04/06 06:52:24;;;;;;;12.98;10.55;;;8.30;67.10;;;;;;5024556;28;20033;-86
2021/04/06 06:54:56;;;;;;;14.00;11.20;;;8.70;66.60;;;;;;5023530;28;20029;-85
2021/04/06 06:57:33;;;;;;;5.55;4.25;;;8.60;65.10;;;;;;5039260;28;20492;-85
2021/04/06 07:00:17;;;;;;;1.65;0.90;;;8.90;62.80;;;;;;5021359;28;20393;-87
2021/04/06 07:02:44;;;;;;;3.75;1.20;;;8.70;62.00;;;;;;5022302;28;20029;-85
2021/04/06 07:05:25;;;;;;;3.85;1.50;;;8.70;62.80;;;;;;5034456;28;20025;-85
2021/04/06 07:08:02;;;;;;;13.70;1.50;;;8.20;61.40;;;;;;5014307;28;20128;-86
2021/04/06 07:10:40;;;;;;;10.10;3.25;;;7.80;74.10;;;;;;5045895;28;20056;-85
2021/04/06 07:13:18;;;;;;;9.35;6.10;;;7.30;64.40;;;;;;5032833;28;20396;-85
2021/04/06 07:15:45;;;;;;;13.48;8.23;;;7.20;66.40;;;;;;5029882;28;20033;-85
2021/04/06 07:18:36;;;;;;;10.95;7.53;;;6.80;67.20;;;;;;5051780;28;20057;-85
2021/04/06 07:21:04;;;;;;;10.68;6.68;;;6.70;70.10;;;;;;5017716;28;20059;-85
2021/04/06 07:24:07;;;;;;;6.72;3.33;;;6.40;72.00;;;;;;5030776;28;20500;-85
2021/04/06 07:26:36;;;;;;;5.65;3.13;;;6.10;70.70;;;;;;5028867;28;20037;-86
2021/04/06 07:29:02;;;;;;;2.72;0.95;;;6.30;73.00;;;;;;5013968;28;20481;-85
2021/04/06 07:31:52;;;;;;;2.45;0.70;;;7.10;68.50;;;;;;5008708;28;20029;-85
2021/04/06 07:34:18;;;;;;;2.53;1.38;;;6.60;54.10;;;;;;5023510;28;20551;-85
2021/04/06 07:36:45;;;;;;;2.80;0.90;;;6.20;49.40;;;;;;5024750;28;20130;-85
2021/04/06 07:39:14;;;;;;;6.93;0.77;;;5.60;48.10;;;;;;5026634;28;20028;-85
2021/04/06 07:41:43;;;;;;;2.13;0.45;;;5.20;47.00;;;;;;5025837;28;20053;-85
2021/04/06 07:44:10;;;;;;;2.85;0.88;;;5.00;46.60;;;;;;5026117;28;20049;-84
2021/04/06 07:46:46;;;;;;;1.60;0.43;;;5.00;49.10;;;;;;5026980;28;20073;-85
2021/04/06 07:49:32;;;;;;;1.27;0.50;;;5.10;47.90;;;;;;5026507;28;20040;-84
2021/04/06 07:52:05;;;;;;;2.78;0.70;;;5.40;47.00;;;;;;5018904;28;20480;-79
2021/04/06 07:54:30;;;;;;;2.30;0.70;;;5.40;44.50;;;;;;5018874;28;20037;-81
2021/04/06 07:57:04;;;;;;;1.17;0.50;;;5.40;47.40;;;;;;5020901;28;20025;-84
2021/04/06 07:59:44;;;;;;;1.23;0.52;;;5.40;44.10;;;;;;5044671;28;20017;-84
2021/04/06 08:02:15;;;;;;;2.17;0.57;;;5.00;44.20;;;;;;5026768;28;20025;-84
2021/04/06 08:04:56;;;;;;;1.80;0.50;;;4.70;44.10;;;;;;5025700;28;20021;-83
2021/04/06 08:07:32;;;;;;;2.40;0.50;;;4.30;41.60;;;;;;5043785;28;20049;-85
2021/04/06 08:10:11;;;;;;;3.13;0.45;;;4.10;41.90;;;;;;5026099;28;20097;-84
2021/04/06 08:12:38;;;;;;;1.35;0.50;;;4.20;43.70;;;;;;5023979;28;20026;-85
2021/04/06 08:15:29;;;;;;;5.50;2.88;;;4.20;43.80;;;;;;5005922;28;20034;-86
2021/04/06 08:17:59;;;;;;;1.48;0.82;;;4.40;42.60;;;;;;5026452;28;20029;-84
2021/04/06 08:20:31;;;;;;;1.02;0.40;;;4.50;43.60;;;;;;5021875;28;20032;-84
2021/04/06 08:23:03;;;;;;;1.08;0.45;;;4.60;42.50;;;;;;5023656;28;20030;-84
2021/04/06 08:25:29;;;;;;;0.90;0.45;;;4.70;42.80;;;;;;5039095;28;20021;-84
2021/04/06 08:27:59;;;;;;;1.50;0.50;;;4.70;42.60;;;;;;5020720;28;20025;-84
2021/04/06 08:30:28;;;;;;;0.85;0.35;;;4.70;42.00;;;;;;4988929;28;20404;-85
2021/04/06 08:35:46;;;;;;;3.85;0.65;;;4.80;43.60;;;;;;5038847;28;20034;-85
2021/04/06 08:38:37;;;;;;;1.45;0.47;;;4.90;43.10;;;;;;5014346;28;20062;-84
2021/04/06 08:41:05;;;;;;;13.10;3.70;;;4.70;40.20;;;;;;5018014;28;20042;-84
2021/04/06 08:43:35;;;;;;;0.95;0.30;;;4.90;41.60;;;;;;5024272;28;20025;-83
2021/04/06 08:46:09;;;;;;;2.72;0.40;;;5.10;39.10;;;;;;5019766;28;20075;-82
2021/04/06 08:48:46;;;;;;;2.10;0.65;;;4.60;41.90;;;;;;5021875;28;20052;-85
2021/04/06 08:51:32;;;;;;;5.25;0.82;;;4.70;42.10;;;;;;5020974;28;20021;-84
2021/04/06 08:54:09;;;;;;;1.20;0.52;;;5.00;43.50;;;;;;5020342;28;20064;-83
2021/04/06 08:56:49;;;;;;;4.45;0.80;;;5.20;39.50;;;;;;5017616;28;20128;-85
2021/04/06 08:59:31;;;;;;;1.90;0.70;;;5.10;38.90;;;;;;5019213;28;20477;-80
2021/04/06 09:01:59;;;;;;;1.15;0.50;;;5.00;40.10;;;;;;5019721;28;20021;-83
2021/04/06 09:04:32;;;;;;;3.60;0.50;;;4.60;39.20;;;;;;5019737;28;20112;-82
2021/04/06 09:06:58;;;;;;;4.18;0.68;;;4.80;40.00;;;;;;5017323;28;20068;-80
2021/04/06 09:09:32;;;;;;;1.92;0.47;;;4.60;40.50;;;;;;5017404;28;20018;-82
2021/04/06 09:12:00;;;;;;;1.20;0.50;;;4.60;41.80;;;;;;5017802;28;20117;-83
2021/04/06 09:14:30;;;;;;;2.85;0.30;;;4.60;40.30;;;;;;5018398;28;20057;-82
2021/04/06 09:16:56;;;;;;;2.05;0.70;;;4.50;39.10;;;;;;5018203;28;20033;-83
2021/04/06 09:19:23;;;;;;;1.75;0.40;;;4.70;38.30;;;;;;5018189;28;20032;-82
2021/04/06 09:21:55;;;;;;;2.70;0.80;;;4.50;39.50;;;;;;5017914;28;20036;-85
2021/04/06 09:24:23;;;;;;;1.02;0.73;;;4.90;40.00;;;;;;5017681;28;20022;-84
2021/04/06 09:26:50;;;;;;;1.85;0.90;;;4.90;39.70;;;;;;5016592;28;20118;-82
2021/04/06 09:29:18;;;;;;;2.45;0.70;;;5.40;42.00;;;;;;5017223;28;20021;-82
2021/04/06 09:31:55;;;;;;;1.98;0.40;;;5.70;39.60;;;;;;5018113;28;20030;-84
2021/04/06 09:34:23;;;;;;;1.60;0.82;;;5.60;36.10;;;;;;5018348;28;20026;-82
2021/04/06 09:37:04;;;;;;;2.95;1.20;;;5.50;37.20;;;;;;5017717;28;20045;-84
2021/04/06 09:39:31;;;;;;;1.55;0.60;;;5.50;36.70;;;;;;5018839;28;20048;-84
2021/04/06 09:41:58;;;;;;;2.88;0.50;;;5.60;34.80;;;;;;5019084;28;20104;-85
2021/04/06 09:44:29;;;;;;;1.80;0.57;;;5.50;37.00;;;;;;5018739;28;20029;-84
2021/04/06 09:47:00;;;;;;;1.42;0.90;;;5.60;37.10;;;;;;5018572;28;20056;-82
2021/04/06 09:49:47;;;;;;;1.80;0.70;;;5.70;36.10;;;;;;5018598;28;20025;-83
2021/04/06 09:52:19;;;;;;;2.45;0.90;;;5.90;36.80;;;;;;5035924;28;20078;-83
2021/04/06 09:54:51;;;;;;;2.15;0.65;;;5.70;36.20;;;;;;5017416;28;20029;-81
2021/04/06 09:57:17;;;;;;;2.00;0.70;;;5.70;37.50;;;;;;5018223;28;20044;-81
2021/04/06 09:59:49;;;;;;;3.30;1.05;;;6.00;35.80;;;;;;5017696;28;20423;-83
2021/04/06 10:02:20;;;;;;;2.50;1.50;;;5.90;35.10;;;;;;5017801;28;20083;-82
2021/04/06 10:04:48;;;;;;;3.03;0.60;;;6.00;35.80;;;;;;5017998;28;20025;-82
2021/04/06 10:07:23;;;;;;;9.00;5.85;;;5.90;35.30;;;;;;5017865;28;20022;-84
2021/04/06 10:09:54;;;;;;;35.88;18.73;;;6.20;37.30;;;;;;5018407;28;20121;-82
2021/04/06 10:12:21;;;;;;;2.70;0.80;;;6.30;35.50;;;;;;5017922;28;20394;-83
2021/04/06 10:14:48;;;;;;;16.40;9.38;;;6.20;34.70;;;;;;5016682;28;20029;-82
2021/04/06 10:17:20;;;;;;;10.23;5.43;;;6.20;35.90;;;;;;5012153;28;20034;-83
2021/04/06 10:19:57;;;;;;;2.08;1.40;;;6.00;34.80;;;;;;5005885;28;20037;-83
2021/04/06 10:22:25;;;;;;;5.78;0.98;;;6.00;34.70;;;;;;5015044;28;20489;-83
2021/04/06 10:24:58;;;;;;;3.85;1.98;;;6.00;33.60;;;;;;5014494;28;20496;-85
2021/04/06 10:27:29;;;;;;;14.95;7.78;;;6.10;35.70;;;;;;5014259;28;20023;-83
2021/04/06 10:30:00;;;;;;;5.30;1.73;;;6.40;35.20;;;;;;5014506;28;20481;-83
2021/04/06 10:33:15;;;;;;;1.80;0.70;;;6.60;33.30;;;;;;5014493;28;20061;-83
2021/04/06 10:35:52;;;;;;;1.75;0.40;;;6.50;34.40;;;;;;5008066;28;20133;-82
2021/04/06 10:38:25;;;;;;;1.10;0.57;;;6.50;33.50;;;;;;5016516;28;20018;-82
2021/04/06 10:41:18;;;;;;;1.35;0.50;;;6.40;33.10;;;;;;5018150;28;20029;-85
2021/04/06 10:43:49;;;;;;;2.67;0.98;;;6.40;34.10;;;;;;5018416;28;20037;-84
2021/04/06 10:46:18;;;;;;;3.30;2.03;;;6.60;33.70;;;;;;5017651;28;20109;-81
2021/04/06 10:48:47;;;;;;;11.88;6.75;;;6.70;33.50;;;;;;5018894;28;20044;-84
2021/04/06 10:51:19;;;;;;;1.88;0.88;;;6.60;38.80;;;;;;5017941;28;20026;-85
2021/04/06 10:53:50;;;;;;;2.10;0.82;;;7.10;37.00;;;;;;5017166;28;20358;-85
2021/04/06 10:56:19;;;;;;;2.58;0.80;;;7.50;35.90;;;;;;5016923;28;20401;-85
2021/04/06 10:58:53;;;;;;;1.90;0.57;;;7.60;35.80;;;;;;5017158;28;20068;-79
2021/04/06 11:01:22;;;;;;;1.30;0.55;;;7.40;33.50;;;;;;5017970;28;20117;-85
2021/04/06 11:03:59;;;;;;;2.47;0.32;;;7.20;32.10;;;;;;5018900;28;20137;-84
2021/04/06 11:06:32;;;;;;;2.15;1.45;;;7.10;32.30;;;;;;5017726;28;20029;-85
2021/04/06 11:08:59;;;;;;;3.03;0.45;;;7.00;32.70;;;;;;5017598;28;20431;-84
2021/04/06 11:11:29;;;;;;;1.25;0.80;;;7.00;32.70;;;;;;5017538;28;20095;-85
2021/04/06 11:13:57;;;;;;;1.35;0.43;;;7.10;32.40;;;;;;5017583;28;20026;-85
2021/04/06 11:16:23;;;;;;;1.30;0.30;;;7.20;31.20;;;;;;5017196;28;20034;-84
2021/04/06 11:18:58;;;;;;;3.95;0.77;;;7.30;31.70;;;;;;5015812;28;20111;-84
2021/04/06 11:21:23;;;;;;;51.25;5.55;;;7.60;34.20;;;;;;5016001;28;20489;-83
2021/04/06 11:23:49;;;;;;;5.05;0.88;;;8.10;35.40;;;;;;5016690;28;20029;-82
2021/04/06 11:26:15;;;;;;;8.15;3.15;;;8.50;31.60;;;;;;5015675;28;20057;-87
2021/04/06 11:28:41;;;;;;;9.18;3.55;;;8.60;32.60;;;;;;5015402;28;20116;-81
2021/04/06 11:31:07;;;;;;;24.30;13.93;;;8.70;32.50;;;;;;5015781;28;20029;-85
2021/04/06 11:33:33;;;;;;;556.97;62.05;;;8.90;30.90;;;;;;5015731;28;20022;-84
2021/04/06 11:35:59;;;;;;;98.07;15.02;;;9.10;37.50;;;;;;5014646;28;20046;-82
2021/04/06 11:38:25;;;;;;;1.83;1.08;;;9.20;34.40;;;;;;5014621;28;20045;-82
2021/04/06 11:40:50;;;;;;;28.40;4.85;;;9.40;30.70;;;;;;5014714;28;20030;-82
2021/04/06 11:43:16;;;;;;;4.70;0.73;;;9.60;33.50;;;;;;5014632;28;20060;-83
2021/04/06 11:45:41;;;;;;;150.27;14.50;;;9.40;32.40;;;;;;5014868;28;20084;-81
2021/04/06 11:48:07;;;;;;;22.77;3.05;;;8.90;33.70;;;;;;5033582;28;20078;-82
2021/04/06 11:50:33;;;;;;;8.77;5.90;;;8.60;33.60;;;;;;5037665;28;20418;-81
2021/04/06 11:52:59;;;;;;;4.47;1.73;;;8.60;33.00;;;;;;5037993;28;20466;-84
2021/04/06 11:55:24;;;;;;;265.73;30.02;;;8.80;32.50;;;;;;5037637;28;20363;-85
2021/04/06 11:57:50;;;;;;;99.15;9.50;;;8.70;36.60;;;;;;5055060;28;20029;-82
2021/04/06 12:00:17;;;;;;;89.10;5.45;;;9.10;35.00;;;;;;5037678;28;20025;-83
2021/04/06 12:02:43;;;;;;;133.43;11.30;;;9.30;36.10;;;;;;5036902;28;20098;-82
2021/04/06 12:05:09;;;;;;;58.72;4.97;;;9.50;34.80;;;;;;5048592;28;20017;-82
2021/04/06 12:07:35;;;;;;;24.75;3.80;;;9.70;34.20;;;;;;5016591;28;20477;-82
2021/04/06 12:10:01;;;;;;;11.98;1.70;;;9.60;34.40;;;;;;5017339;28;20025;-82
2021/04/06 12:12:28;;;;;;;15.55;6.97;;;9.40;32.50;;;;;;5016981;28;20029;-80
2021/04/06 12:14:54;;;;;;;4.18;1.67;;;9.20;32.10;;;;;;5017237;28;20032;-81
2021/04/06 12:17:20;;;;;;;11.02;2.15;;;9.20;31.10;;;;;;5017361;28;20040;-82
2021/04/06 12:19:46;;;;;;;13.05;1.23;;;9.10;30.60;;;;;;5017213;28;20025;-82
2021/04/06 12:22:11;;;;;;;17.83;2.55;;;9.10;32.00;;;;;;5017120;28;20036;-82
2021/04/06 12:24:37;;;;;;;60.17;7.38;;;9.20;32.20;;;;;;5016865;28;20037;-82
2021/04/06 12:27:04;;;;;;;25.73;4.20;;;9.20;33.50;;;;;;5016800;28;20032;-83
2021/04/06 12:29:29;;;;;;;2.50;0.52;;;9.40;33.70;;;;;;5034592;28;20029;-82
2021/04/06 12:31:55;;;;;;;1.17;0.40;;;9.40;30.70;;;;;;5016651;28;20376;-82
2021/04/06 12:34:21;;;;;;;3.30;1.80;;;9.10;30.70;;;;;;5016522;28;20018;-82
2021/04/06 12:36:46;;;;;;;404.85;41.50;;;9.00;31.70;;;;;;5016132;28;20045;-80
2021/04/06 12:39:12;;;;;;;72.07;5.82;;;9.10;34.00;;;;;;5034431;28;20068;-81
2021/04/06 12:41:38;;;;;;;53.67;3.33;;;9.10;31.30;;;;;;5034178;28;20428;-83
2021/04/06 12:44:03;;;;;;;189.68;10.52;;;9.00;32.50;;;;;;5016501;28;20384;-81
2021/04/06 12:46:29;;;;;;;119.20;7.25;;;9.20;34.10;;;;;;5016390;28;20087;-80
2021/04/06 12:48:55;;;;;;;44.05;5.30;;;9.10;33.10;;;;;;5016663;28;20080;-81
2021/04/06 12:51:21;;;;;;;8.50;1.17;;;8.90;32.20;;;;;;5034020;28;20059;-81
2021/04/06 12:53:47;;;;;;;21.58;2.25;;;8.60;32.20;;;;;;5016008;28;20017;-79
2021/04/06 12:56:13;;;;;;;25.27;16.35;;;8.50;35.70;;;;;;5015852;28;20088;-80
2021/04/06 12:58:38;;;;;;;26.25;6.95;;;8.80;34.70;;;;;;5015819;28;20105;-80
2021/04/06 13:01:04;;;;;;;17.00;2.85;;;9.00;33.50;;;;;;5016434;28;20033;-83
2021/04/06 13:03:30;;;;;;;16.58;2.65;;;9.30;32.60;;;;;;5016397;28;20075;-81
2021/04/06 13:05:55;;;;;;;5.20;1.30;;;9.40;34.90;;;;;;5016116;28;20068;-83
2021/04/06 13:08:21;;;;;;;4.03;1.92;;;9.50;33.60;;;;;;5016087;28;20021;-82
2021/04/06 13:10:49;;;;;;;2.63;1.05;;;9.30;31.30;;;;;;5016343;28;20176;-83
2021/04/06 13:13:15;;;;;;;2.42;0.75;;;9.10;32.30;;;;;;5016121;28;20025;-81
2021/04/06 13:15:41;;;;;;;1.45;0.82;;;9.30;32.80;;;;;;5015954;28;20036;-80
2021/04/06 13:18:08;;;;;;;1.88;0.40;;;9.30;31.20;;;;;;5015864;28;20083;-82
2021/04/06 13:20:35;;;;;;;2.03;0.43;;;9.10;33.20;;;;;;5015981;28;20049;-80
2021/04/06 13:23:00;;;;;;;11.80;2.05;;;8.90;33.00;;;;;;5015800;28;20072;-80
2021/04/06 13:25:26;;;;;;;48.38;5.47;;;8.70;34.50;;;;;;5016074;28;20045;-82
2021/04/06 13:27:52;;;;;;;461.30;39.72;;;8.60;36.70;;;;;;5033446;28;20025;-81
2021/04/06 13:30:20;;;;;;;180.48;13.60;;;8.70;35.30;;;;;;5033614;28;20022;-82
2021/04/06 13:32:46;;;;;;;314.95;23.17;;;8.80;35.70;;;;;;5033356;28;20120;-85
2021/04/06 13:35:13;;;;;;;62.30;3.67;;;8.90;36.50;;;;;;5016366;28;20053;-81
2021/04/06 13:37:39;;;;;;;35.72;2.65;;;8.90;35.00;;;;;;5033575;28;20485;-84
2021/04/06 13:40:08;;;;;;;63.10;4.65;;;8.50;35.60;;;;;;5016260;28;20072;-85
2021/04/06 13:42:35;;;;;;;66.28;3.38;;;8.70;37.90;;;;;;5017100;28;20044;-86
2021/04/06 13:45:04;;;;;;;9.48;1.50;;;8.60;34.50;;;;;;5017420;28;20026;-83
2021/04/06 13:47:29;;;;;;;25.35;4.10;;;8.70;34.30;;;;;;5016972;28;20030;-86
2021/04/06 13:49:55;;;;;;;9.15;5.10;;;8.80;34.50;;;;;;5017278;28;20033;-82
2021/04/06 13:52:21;;;;;;;18.70;3.33;;;8.70;33.60;;;;;;5017291;28;20056;-87
2021/04/06 13:54:46;;;;;;;5.53;3.30;;;8.80;35.10;;;;;;5016961;28;20025;-85
2021/04/06 13:57:12;;;;;;;13.10;1.60;;;8.70;35.40;;;;;;5034379;28;20046;-84
2021/04/06 13:59:38;;;;;;;3.90;0.98;;;8.40;34.10;;;;;;5017527;28;20029;-83
2021/04/06 14:02:03;;;;;;;1.23;0.50;;;8.30;35.50;;;;;;5015992;28;20369;-82
2021/04/06 14:04:29;;;;;;;3.05;0.50;;;8.30;34.30;;;;;;5034001;28;20045;-83
2021/04/06 14:06:55;;;;;;;1.00;0.43;;;8.00;33.20;;;;;;5016793;28;20029;-81
2021/04/06 14:09:20;;;;;;;3.03;0.40;;;7.60;35.50;;;;;;5016785;28;20091;-82
2021/04/06 14:11:46;;;;;;;1.30;0.80;;;7.30;35.80;;;;;;5017274;28;20025;-82
2021/04/06 14:14:12;;;;;;;24.67;17.23;;;7.10;38.90;;;;;;5020605;28;20029;-82
2021/04/06 14:16:37;;;;;;;23.77;13.57;;;6.60;40.60;;;;;;5020955;28;20043;-83
2021/04/06 14:19:03;;;;;;;10.23;5.72;;;6.70;42.00;;;;;;5019908;28;20091;-79
2021/04/06 14:21:29;;;;;;;8.48;4.10;;;6.70;40.40;;;;;;5037606;28;20491;-80
2021/04/06 14:23:54;;;;;;;27.23;14.75;;;6.70;37.90;;;;;;5021125;28;20021;-83
2021/04/06 14:26:20;;;;;;;44.03;24.05;;;6.70;37.70;;;;;;5020088;28;20025;-82
2021/04/06 14:28:46;;;;;;;8.93;5.07;;;6.80;39.70;;;;;;5019886;28;20071;-84
2021/04/06 14:31:12;;;;;;;74.10;38.30;;;6.90;34.60;;;;;;5019963;28;20029;-83
2021/04/06 14:33:38;;;;;;;65.47;31.58;;;7.00;32.20;;;;;;5020422;28;20112;-83
2021/04/06 14:36:04;;;;;;;35.88;18.80;;;7.00;32.50;;;;;;5019944;28;20072;-83
2021/04/06 14:38:32;;;;;;;22.63;11.13;;;7.00;31.80;;;;;;5020734;28;20500;-84
2021/04/06 14:40:58;;;;;;;41.08;22.98;;;6.90;31.50;;;;;;5038039;28;20032;-82
2021/04/06 14:43:30;;;;;;;9.88;5.03;;;6.80;32.10;;;;;;5020159;28;20485;-84
2021/04/06 14:45:59;;;;;;;20.60;10.02;;;6.90;32.90;;;;;;5019846;28;20026;-83